sensor_id;sensor_type;location;lat;lon;timestamp;P1;durP1;ratioP1;P2;durP2;ratioP2
46897;SDS011;32646;50.958;6.258;2023-04-01T00:00:59;1.35;;;0.65;;
46897;SDS011;32646;50.958;6.258;2023-04-01T00:03:26;1.67;;;0.60;;
46897;SDS011;32646;50.958;6.258;2023-04-01T00:05:54;0.70;;;0.20;;
46897;SDS011;32646;50.958;6.258;2023-04-01T00:08:22;2.20;;;0.47;;
46897;SDS011;32646;50.958;6.258;2023-04-01T00:10:49;2.83;;;0.60;;
46897;SDS011;32646;50.958;6.258;2023-04-01T00:13:16;2.17;;;0.50;;
46897;SDS011;32646;50.958;6.258;2023-04-01T00:15:42;1.52;;;0.75;;
46897;SDS011;32646;50.958;6.258;2023-04-01T00:18:10;2.08;;;0.73;;
46897;SDS011;32646;50.958;6.258;2023-04-01T00:20:37;3.13;;;0.70;;
46897;SDS011;32646;50.958;6.258;2023-04-01T00:23:04;1.50;;;0.50;;
46897;SDS011;32646;50.958;6.258;2023-04-01T00:25:30;1.00;;;0.35;;
46897;SDS011;32646;50.958;6.258;2023-04-01T00:27:58;5.07;;;0.70;;
46897;SDS011;32646;50.958;6.258;2023-04-01T00:30:24;2.38;;;0.70;;
46897;SDS011;32646;50.958;6.258;2023-04-01T00:32:51;2.15;;;0.40;;
46897;SDS011;32646;50.958;6.258;2023-04-01T00:35:19;1.52;;;0.40;;
46897;SDS011;32646;50.958;6.258;2023-04-01T00:37:45;1.85;;;0.50;;
46897;SDS011;32646;50.958;6.258;2023-04-01T00:40:26;3.88;;;0.55;;
46897;SDS011;32646;50.958;6.258;2023-04-01T00:42:55;1.13;;;0.40;;
46897;SDS011;32646;50.958;6.258;2023-04-01T00:51:00;1.40;;;0.50;;
46897;SDS011;32646;50.958;6.258;2023-04-01T00:53:40;3.45;;;0.75;;
46897;SDS011;32646;50.958;6.258;2023-04-01T00:56:11;3.22;;;0.55;;
46897;SDS011;32646;50.958;6.258;2023-04-01T00:58:44;3.00;;;0.75;;
46897;SDS011;32646;50.958;6.258;2023-04-01T01:01:15;3.00;;;0.40;;
46897;SDS011;32646;50.958;6.258;2023-04-01T01:03:42;3.03;;;0.50;;
46897;SDS011;32646;50.958;6.258;2023-04-01T01:06:10;3.63;;;0.63;;
46897;SDS011;32646;50.958;6.258;2023-04-01T01:08:50;1.52;;;0.70;;
46897;SDS011;32646;50.958;6.258;2023-04-01T01:11:40;0.80;;;0.38;;
46897;SDS011;32646;50.958;6.258;2023-04-01T01:14:19;0.88;;;0.50;;
46897;SDS011;32646;50.958;6.258;2023-04-01T01:16:51;2.17;;;0.70;;
46897;SDS011;32646;50.958;6.258;2023-04-01T01:22:21;1.65;;;0.50;;
46897;SDS011;32646;50.958;6.258;2023-04-01T01:25:14;1.35;;;0.45;;
46897;SDS011;32646;50.958;6.258;2023-04-01T01:27:58;1.67;;;0.90;;
46897;SDS011;32646;50.958;6.258;2023-04-01T01:30:39;0.63;;;0.30;;
46897;SDS011;32646;50.958;6.258;2023-04-01T01:33:28;1.25;;;0.45;;
46897;SDS011;32646;50.958;6.258;2023-04-01T01:36:15;1.65;;;0.30;;
46897;SDS011;32646;50.958;6.258;2023-04-01T01:38:45;1.17;;;0.40;;
46897;SDS011;32646;50.958;6.258;2023-04-01T01:41:13;1.10;;;0.40;;
46897;SDS011;32646;50.958;6.258;2023-04-01T01:46:13;1.95;;;0.60;;
46897;SDS011;32646;50.958;6.258;2023-04-01T01:48:43;1.00;;;0.30;;
46897;SDS011;32646;50.958;6.258;2023-04-01T01:51:11;1.48;;;0.38;;
46897;SDS011;32646;50.958;6.258;2023-04-01T01:53:38;1.27;;;0.30;;
46897;SDS011;32646;50.958;6.258;2023-04-01T01:56:05;1.50;;;0.40;;
46897;SDS011;32646;50.958;6.258;2023-04-01T02:01:04;0.45;;;0.20;;
46897;SDS011;32646;50.958;6.258;2023-04-01T02:03:34;0.75;;;0.30;;
46897;SDS011;32646;50.958;6.258;2023-04-01T02:06:04;0.32;;;0.20;;
46897;SDS011;32646;50.958;6.258;2023-04-01T02:08:40;1.17;;;0.10;;
46897;SDS011;32646;50.958;6.258;2023-04-01T02:11:22;2.08;;;0.43;;
46897;SDS011;32646;50.958;6.258;2023-04-01T02:16:25;0.68;;;0.20;;
46897;SDS011;32646;50.958;6.258;2023-04-01T02:19:13;1.75;;;0.30;;
46897;SDS011;32646;50.958;6.258;2023-04-01T02:21:41;1.02;;;0.20;;
46897;SDS011;32646;50.958;6.258;2023-04-01T02:24:10;1.45;;;0.30;;
46897;SDS011;32646;50.958;6.258;2023-04-01T02:26:40;0.65;;;0.20;;
46897;SDS011;32646;50.958;6.258;2023-04-01T02:29:07;0.35;;;0.20;;
46897;SDS011;32646;50.958;6.258;2023-04-01T02:31:35;1.45;;;0.30;;
46897;SDS011;32646;50.958;6.258;2023-04-01T02:34:03;0.20;;;0.10;;
46897;SDS011;32646;50.958;6.258;2023-04-01T02:36:30;1.92;;;0.30;;
46897;SDS011;32646;50.958;6.258;2023-04-01T02:38:57;1.13;;;0.32;;
46897;SDS011;32646;50.958;6.258;2023-04-01T02:41:25;1.48;;;0.30;;
46897;SDS011;32646;50.958;6.258;2023-04-01T02:43:51;0.52;;;0.15;;
46897;SDS011;32646;50.958;6.258;2023-04-01T02:46:18;2.83;;;0.50;;
46897;SDS011;32646;50.958;6.258;2023-04-01T02:48:44;1.40;;;0.45;;
46897;SDS011;32646;50.958;6.258;2023-04-01T02:51:11;1.42;;;0.47;;
46897;SDS011;32646;50.958;6.258;2023-04-01T02:53:37;0.52;;;0.30;;
46897;SDS011;32646;50.958;6.258;2023-04-01T02:56:04;0.60;;;0.40;;
46897;SDS011;32646;50.958;6.258;2023-04-01T02:58:30;0.40;;;0.30;;
46897;SDS011;32646;50.958;6.258;2023-04-01T03:00:57;0.32;;;0.20;;
46897;SDS011;32646;50.958;6.258;2023-04-01T03:03:24;1.23;;;0.40;;
46897;SDS011;32646;50.958;6.258;2023-04-01T03:05:50;0.77;;;0.28;;
46897;SDS011;32646;50.958;6.258;2023-04-01T03:08:17;1.40;;;0.38;;
46897;SDS011;32646;50.958;6.258;2023-04-01T03:10:43;1.08;;;0.30;;
46897;SDS011;32646;50.958;6.258;2023-04-01T03:13:10;4.05;;;0.82;;
46897;SDS011;32646;50.958;6.258;2023-04-01T03:15:36;1.55;;;0.43;;
46897;SDS011;32646;50.958;6.258;2023-04-01T03:18:03;1.45;;;0.68;;
46897;SDS011;32646;50.958;6.258;2023-04-01T03:20:30;4.47;;;0.60;;
46897;SDS011;32646;50.958;6.258;2023-04-01T03:22:56;0.75;;;0.30;;
46897;SDS011;32646;50.958;6.258;2023-04-01T03:25:23;1.20;;;0.45;;
46897;SDS011;32646;50.958;6.258;2023-04-01T03:27:49;3.03;;;0.55;;
46897;SDS011;32646;50.958;6.258;2023-04-01T03:30:16;2.22;;;0.52;;
46897;SDS011;32646;50.958;6.258;2023-04-01T03:32:43;1.98;;;0.70;;
46897;SDS011;32646;50.958;6.258;2023-04-01T03:35:10;1.30;;;0.50;;
46897;SDS011;32646;50.958;6.258;2023-04-01T03:37:36;1.58;;;0.52;;
46897;SDS011;32646;50.958;6.258;2023-04-01T03:40:03;1.33;;;0.50;;
46897;SDS011;32646;50.958;6.258;2023-04-01T03:42:30;2.10;;;0.70;;
46897;SDS011;32646;50.958;6.258;2023-04-01T03:44:57;2.85;;;0.57;;
46897;SDS011;32646;50.958;6.258;2023-04-01T03:47:23;1.98;;;0.50;;
46897;SDS011;32646;50.958;6.258;2023-04-01T03:49:50;1.85;;;0.60;;
46897;SDS011;32646;50.958;6.258;2023-04-01T03:52:16;2.88;;;0.82;;
46897;SDS011;32646;50.958;6.258;2023-04-01T03:54:43;2.25;;;0.82;;
46897;SDS011;32646;50.958;6.258;2023-04-01T03:57:10;3.13;;;1.25;;
46897;SDS011;32646;50.958;6.258;2023-04-01T03:59:36;3.25;;;0.70;;
46897;SDS011;32646;50.958;6.258;2023-04-01T04:02:03;3.83;;;0.95;;
46897;SDS011;32646;50.958;6.258;2023-04-01T04:04:30;2.90;;;0.60;;
46897;SDS011;32646;50.958;6.258;2023-04-01T04:06:56;2.35;;;0.88;;
46897;SDS011;32646;50.958;6.258;2023-04-01T04:09:23;2.88;;;0.80;;
46897;SDS011;32646;50.958;6.258;2023-04-01T04:11:49;2.67;;;0.95;;
46897;SDS011;32646;50.958;6.258;2023-04-01T04:14:16;1.58;;;0.50;;
46897;SDS011;32646;50.958;6.258;2023-04-01T04:16:43;3.58;;;0.80;;
46897;SDS011;32646;50.958;6.258;2023-04-01T04:19:10;2.00;;;0.77;;
46897;SDS011;32646;50.958;6.258;2023-04-01T04:21:36;2.30;;;0.88;;
46897;SDS011;32646;50.958;6.258;2023-04-01T04:24:03;2.42;;;0.90;;
46897;SDS011;32646;50.958;6.258;2023-04-01T04:26:29;3.13;;;1.20;;
46897;SDS011;32646;50.958;6.258;2023-04-01T04:28:56;3.00;;;1.00;;
46897;SDS011;32646;50.958;6.258;2023-04-01T04:31:23;2.58;;;0.90;;
46897;SDS011;32646;50.958;6.258;2023-04-01T04:33:51;4.22;;;1.20;;
46897;SDS011;32646;50.958;6.258;2023-04-01T04:36:20;2.38;;;0.75;;
46897;SDS011;32646;50.958;6.258;2023-04-01T04:38:47;2.58;;;1.05;;
46897;SDS011;32646;50.958;6.258;2023-04-01T04:41:14;1.98;;;0.82;;
46897;SDS011;32646;50.958;6.258;2023-04-01T04:43:42;3.15;;;1.10;;
46897;SDS011;32646;50.958;6.258;2023-04-01T04:46:15;3.15;;;0.95;;
46897;SDS011;32646;50.958;6.258;2023-04-01T04:48:41;3.13;;;1.08;;
46897;SDS011;32646;50.958;6.258;2023-04-01T04:51:08;2.45;;;0.82;;
46897;SDS011;32646;50.958;6.258;2023-04-01T04:53:38;4.85;;;1.20;;
46897;SDS011;32646;50.958;6.258;2023-04-01T04:56:04;3.45;;;1.20;;
46897;SDS011;32646;50.958;6.258;2023-04-01T04:58:31;4.13;;;1.52;;
46897;SDS011;32646;50.958;6.258;2023-04-01T05:00:57;3.65;;;1.10;;
46897;SDS011;32646;50.958;6.258;2023-04-01T05:03:24;2.65;;;0.88;;
46897;SDS011;32646;50.958;6.258;2023-04-01T05:05:52;2.75;;;0.93;;
46897;SDS011;32646;50.958;6.258;2023-04-01T05:08:19;3.72;;;0.98;;
46897;SDS011;32646;50.958;6.258;2023-04-01T05:10:46;2.78;;;0.90;;
46897;SDS011;32646;50.958;6.258;2023-04-01T05:13:13;3.42;;;0.80;;
46897;SDS011;32646;50.958;6.258;2023-04-01T05:15:39;2.95;;;0.63;;
46897;SDS011;32646;50.958;6.258;2023-04-01T05:18:06;3.20;;;0.80;;
46897;SDS011;32646;50.958;6.258;2023-04-01T05:20:32;2.75;;;0.80;;
46897;SDS011;32646;50.958;6.258;2023-04-01T05:22:59;3.08;;;1.00;;
46897;SDS011;32646;50.958;6.258;2023-04-01T05:25:26;1.70;;;0.60;;
46897;SDS011;32646;50.958;6.258;2023-04-01T05:27:53;2.88;;;1.00;;
46897;SDS011;32646;50.958;6.258;2023-04-01T05:30:20;2.33;;;0.77;;
46897;SDS011;32646;50.958;6.258;2023-04-01T05:32:46;2.83;;;0.80;;
46897;SDS011;32646;50.958;6.258;2023-04-01T05:35:13;3.17;;;0.82;;
46897;SDS011;32646;50.958;6.258;2023-04-01T05:37:40;3.10;;;0.93;;
46897;SDS011;32646;50.958;6.258;2023-04-01T05:40:06;3.50;;;1.20;;
46897;SDS011;32646;50.958;6.258;2023-04-01T05:42:33;1.98;;;0.77;;
46897;SDS011;32646;50.958;6.258;2023-04-01T05:45:03;3.25;;;0.88;;
46897;SDS011;32646;50.958;6.258;2023-04-01T05:47:30;1.67;;;0.80;;
46897;SDS011;32646;50.958;6.258;2023-04-01T05:49:56;3.80;;;0.93;;
46897;SDS011;32646;50.958;6.258;2023-04-01T05:52:23;2.40;;;0.93;;
46897;SDS011;32646;50.958;6.258;2023-04-01T05:54:49;2.00;;;0.70;;
46897;SDS011;32646;50.958;6.258;2023-04-01T05:57:16;2.60;;;0.90;;
46897;SDS011;32646;50.958;6.258;2023-04-01T05:59:43;3.13;;;1.20;;
46897;SDS011;32646;50.958;6.258;2023-04-01T06:02:09;3.42;;;1.27;;
46897;SDS011;32646;50.958;6.258;2023-04-01T06:04:39;4.47;;;1.33;;
46897;SDS011;32646;50.958;6.258;2023-04-01T06:07:13;3.65;;;1.38;;
46897;SDS011;32646;50.958;6.258;2023-04-01T06:09:41;4.22;;;1.13;;
46897;SDS011;32646;50.958;6.258;2023-04-01T06:12:17;4.45;;;1.50;;
46897;SDS011;32646;50.958;6.258;2023-04-01T06:21:23;4.30;;;1.70;;
46897;SDS011;32646;50.958;6.258;2023-04-01T06:30:28;5.93;;;2.05;;
46897;SDS011;32646;50.958;6.258;2023-04-01T06:44:12;3.03;;;1.00;;
46897;SDS011;32646;50.958;6.258;2023-04-01T06:46:57;3.92;;;1.50;;
46897;SDS011;32646;50.958;6.258;2023-04-01T06:57:56;4.00;;;1.65;;
46897;SDS011;32646;50.958;6.258;2023-04-01T07:00:36;2.67;;;0.88;;
46897;SDS011;32646;50.958;6.258;2023-04-01T07:06:15;3.47;;;1.40;;
46897;SDS011;32646;50.958;6.258;2023-04-01T07:08:53;3.50;;;1.20;;
46897;SDS011;32646;50.958;6.258;2023-04-01T07:11:25;3.63;;;1.20;;
46897;SDS011;32646;50.958;6.258;2023-04-01T07:14:00;3.10;;;1.30;;
46897;SDS011;32646;50.958;6.258;2023-04-01T07:19:10;3.30;;;1.13;;
46897;SDS011;32646;50.958;6.258;2023-04-01T07:21:47;3.83;;;1.02;;
46897;SDS011;32646;50.958;6.258;2023-04-01T07:24:27;3.78;;;1.50;;
46897;SDS011;32646;50.958;6.258;2023-04-01T07:26:59;2.25;;;0.85;;
46897;SDS011;32646;50.958;6.258;2023-04-01T07:29:26;2.85;;;0.90;;
46897;SDS011;32646;50.958;6.258;2023-04-01T07:35:08;2.50;;;1.00;;
46897;SDS011;32646;50.958;6.258;2023-04-01T07:46:10;2.13;;;0.80;;
46897;SDS011;32646;50.958;6.258;2023-04-01T07:54:07;3.13;;;1.05;;
46897;SDS011;32646;50.958;6.258;2023-04-01T07:56:55;2.55;;;1.02;;
46897;SDS011;32646;50.958;6.258;2023-04-01T07:59:30;2.08;;;0.70;;
46897;SDS011;32646;50.958;6.258;2023-04-01T08:02:28;2.53;;;1.05;;
46897;SDS011;32646;50.958;6.258;2023-04-01T08:05:13;2.55;;;1.13;;
46897;SDS011;32646;50.958;6.258;2023-04-01T08:10:18;3.15;;;1.15;;
46897;SDS011;32646;50.958;6.258;2023-04-01T08:18:41;2.25;;;0.90;;
46897;SDS011;32646;50.958;6.258;2023-04-01T08:21:21;3.35;;;0.90;;
46897;SDS011;32646;50.958;6.258;2023-04-01T08:23:52;2.60;;;1.00;;
46897;SDS011;32646;50.958;6.258;2023-04-01T08:29:02;2.70;;;0.95;;
46897;SDS011;32646;50.958;6.258;2023-04-01T08:32:21;3.20;;;1.02;;
46897;SDS011;32646;50.958;6.258;2023-04-01T08:34:38;3.28;;;1.10;;
46897;SDS011;32646;50.958;6.258;2023-04-01T08:37:11;2.72;;;0.93;;
46897;SDS011;32646;50.958;6.258;2023-04-01T08:39:49;3.00;;;1.02;;
46897;SDS011;32646;50.958;6.258;2023-04-01T08:53:49;2.42;;;0.98;;
46897;SDS011;32646;50.958;6.258;2023-04-01T08:56:33;2.80;;;0.95;;
46897;SDS011;32646;50.958;6.258;2023-04-01T08:59:19;3.33;;;1.30;;
46897;SDS011;32646;50.958;6.258;2023-04-01T09:02:00;3.05;;;1.00;;
46897;SDS011;32646;50.958;6.258;2023-04-01T09:13:14;3.05;;;0.98;;
46897;SDS011;32646;50.958;6.258;2023-04-01T09:18:55;3.35;;;1.20;;
46897;SDS011;32646;50.958;6.258;2023-04-01T09:24:40;2.90;;;1.15;;
46897;SDS011;32646;50.958;6.258;2023-04-01T09:27:19;3.25;;;1.20;;
46897;SDS011;32646;50.958;6.258;2023-04-01T09:38:22;2.83;;;1.13;;
46897;SDS011;32646;50.958;6.258;2023-04-01T09:46:04;3.90;;;1.52;;
46897;SDS011;32646;50.958;6.258;2023-04-01T09:49:01;4.10;;;1.80;;
46897;SDS011;32646;50.958;6.258;2023-04-01T10:30:05;3.47;;;1.50;;
46897;SDS011;32646;50.958;6.258;2023-04-01T10:36:23;3.47;;;1.30;;
46897;SDS011;32646;50.958;6.258;2023-04-01T10:42:10;3.00;;;1.40;;
46897;SDS011;32646;50.958;6.258;2023-04-01T10:53:12;3.40;;;1.20;;
46897;SDS011;32646;50.958;6.258;2023-04-01T10:59:02;3.35;;;1.52;;
46897;SDS011;32646;50.958;6.258;2023-04-01T11:05:21;3.53;;;1.48;;
46897;SDS011;32646;50.958;6.258;2023-04-01T11:08:38;3.28;;;1.50;;
46897;SDS011;32646;50.958;6.258;2023-04-01T11:14:49;4.05;;;1.45;;
46897;SDS011;32646;50.958;6.258;2023-04-01T11:30:49;4.05;;;1.70;;
46897;SDS011;32646;50.958;6.258;2023-04-01T11:44:32;3.78;;;1.30;;
46897;SDS011;32646;50.958;6.258;2023-04-01T11:50:12;3.60;;;1.50;;
46897;SDS011;32646;50.958;6.258;2023-04-01T12:07:03;3.97;;;1.60;;
46897;SDS011;32646;50.958;6.258;2023-04-01T12:10:01;3.33;;;1.30;;
46897;SDS011;32646;50.958;6.258;2023-04-01T12:15:52;3.40;;;1.50;;
46897;SDS011;32646;50.958;6.258;2023-04-01T12:48:56;4.78;;;1.90;;
46897;SDS011;32646;50.958;6.258;2023-04-01T12:51:41;4.05;;;1.67;;
46897;SDS011;32646;50.958;6.258;2023-04-01T13:19:47;6.82;;;3.67;;
46897;SDS011;32646;50.958;6.258;2023-04-01T13:22:34;6.30;;;2.63;;
46897;SDS011;32646;50.958;6.258;2023-04-01T13:27:45;8.25;;;3.45;;
46897;SDS011;32646;50.958;6.258;2023-04-01T13:33:20;6.95;;;3.38;;
46897;SDS011;32646;50.958;6.258;2023-04-01T13:39:00;7.22;;;3.30;;
46897;SDS011;32646;50.958;6.258;2023-04-01T13:44:27;6.78;;;2.95;;
46897;SDS011;32646;50.958;6.258;2023-04-01T13:47:40;6.88;;;2.95;;
46897;SDS011;32646;50.958;6.258;2023-04-01T13:50:31;7.00;;;3.13;;
46897;SDS011;32646;50.958;6.258;2023-04-01T13:53:30;4.50;;;1.88;;
46897;SDS011;32646;50.958;6.258;2023-04-01T14:07:11;4.72;;;2.10;;
46897;SDS011;32646;50.958;6.258;2023-04-01T14:12:44;4.72;;;2.47;;
46897;SDS011;32646;50.958;6.258;2023-04-01T14:28:57;8.57;;;3.58;;
46897;SDS011;32646;50.958;6.258;2023-04-01T14:31:41;7.72;;;3.53;;
46897;SDS011;32646;50.958;6.258;2023-04-01T14:45:51;6.00;;;2.65;;
46897;SDS011;32646;50.958;6.258;2023-04-01T14:57:10;5.88;;;2.88;;
46897;SDS011;32646;50.958;6.258;2023-04-01T14:59:51;5.30;;;2.60;;
46897;SDS011;32646;50.958;6.258;2023-04-01T15:05:32;7.00;;;3.05;;
46897;SDS011;32646;50.958;6.258;2023-04-01T15:08:08;6.20;;;2.80;;
46897;SDS011;32646;50.958;6.258;2023-04-01T15:11:17;5.97;;;2.60;;
46897;SDS011;32646;50.958;6.258;2023-04-01T15:14:27;5.47;;;2.83;;
46897;SDS011;32646;50.958;6.258;2023-04-01T15:17:39;5.18;;;2.85;;
46897;SDS011;32646;50.958;6.258;2023-04-01T15:25:53;6.30;;;2.97;;
46897;SDS011;32646;50.958;6.258;2023-04-01T15:34:17;7.30;;;2.80;;
46897;SDS011;32646;50.958;6.258;2023-04-01T15:37:12;5.80;;;2.70;;
46897;SDS011;32646;50.958;6.258;2023-04-01T15:45:39;6.25;;;3.00;;
46897;SDS011;32646;50.958;6.258;2023-04-01T15:50:54;6.15;;;3.00;;
46897;SDS011;32646;50.958;6.258;2023-04-01T15:56:43;6.72;;;2.45;;
46897;SDS011;32646;50.958;6.258;2023-04-01T15:59:34;4.63;;;1.75;;
46897;SDS011;32646;50.958;6.258;2023-04-01T16:08:02;4.85;;;2.30;;
46897;SDS011;32646;50.958;6.258;2023-04-01T16:10:52;4.10;;;1.77;;
46897;SDS011;32646;50.958;6.258;2023-04-01T16:16:00;4.78;;;2.03;;
46897;SDS011;32646;50.958;6.258;2023-04-01T16:18:56;4.20;;;1.80;;
46897;SDS011;32646;50.958;6.258;2023-04-01T16:29:57;5.32;;;2.00;;
46897;SDS011;32646;50.958;6.258;2023-04-01T16:41:10;5.82;;;2.42;;
46897;SDS011;32646;50.958;6.258;2023-04-01T16:43:48;6.47;;;2.90;;
46897;SDS011;32646;50.958;6.258;2023-04-01T16:46:32;4.25;;;1.80;;
46897;SDS011;32646;50.958;6.258;2023-04-01T16:54:44;6.20;;;2.28;;
46897;SDS011;32646;50.958;6.258;2023-04-01T16:57:28;6.07;;;3.20;;
46897;SDS011;32646;50.958;6.258;2023-04-01T17:02:59;5.85;;;2.97;;
46897;SDS011;32646;50.958;6.258;2023-04-01T17:08:21;6.55;;;3.42;;
46897;SDS011;32646;50.958;6.258;2023-04-01T17:13:46;6.30;;;3.05;;
46897;SDS011;32646;50.958;6.258;2023-04-01T17:21:56;6.55;;;3.10;;
46897;SDS011;32646;50.958;6.258;2023-04-01T17:29:59;7.05;;;3.08;;
46897;SDS011;32646;50.958;6.258;2023-04-01T17:35:27;5.53;;;2.25;;
46897;SDS011;32646;50.958;6.258;2023-04-01T17:38:19;7.25;;;2.72;;
46897;SDS011;32646;50.958;6.258;2023-04-01T17:41:24;5.70;;;2.53;;
46897;SDS011;32646;50.958;6.258;2023-04-01T17:52:42;5.43;;;2.25;;
46897;SDS011;32646;50.958;6.258;2023-04-01T17:55:34;5.85;;;2.35;;
46897;SDS011;32646;50.958;6.258;2023-04-01T17:58:20;5.40;;;2.20;;
46897;SDS011;32646;50.958;6.258;2023-04-01T18:01:21;5.72;;;2.63;;
46897;SDS011;32646;50.958;6.258;2023-04-01T18:12:22;6.38;;;2.63;;
46897;SDS011;32646;50.958;6.258;2023-04-01T18:20:41;4.63;;;1.90;;
46897;SDS011;32646;50.958;6.258;2023-04-01T18:23:53;4.20;;;1.67;;
46897;SDS011;32646;50.958;6.258;2023-04-01T18:26:29;4.95;;;2.10;;
46897;SDS011;32646;50.958;6.258;2023-04-01T18:34:49;6.45;;;2.83;;
46897;SDS011;32646;50.958;6.258;2023-04-01T18:37:37;6.80;;;3.05;;
46897;SDS011;32646;50.958;6.258;2023-04-01T18:40:13;5.78;;;2.75;;
46897;SDS011;32646;50.958;6.258;2023-04-01T18:45:46;5.70;;;2.80;;
46897;SDS011;32646;50.958;6.258;2023-04-01T18:48:46;8.63;;;3.97;;
46897;SDS011;32646;50.958;6.258;2023-04-01T18:51:25;7.28;;;3.67;;
46897;SDS011;32646;50.958;6.258;2023-04-01T18:54:02;9.57;;;3.30;;
46897;SDS011;32646;50.958;6.258;2023-04-01T18:56:47;8.55;;;3.97;;
46897;SDS011;32646;50.958;6.258;2023-04-01T18:59:22;8.52;;;4.03;;
46897;SDS011;32646;50.958;6.258;2023-04-01T19:02:00;8.30;;;4.20;;
46897;SDS011;32646;50.958;6.258;2023-04-01T19:04:45;11.13;;;4.50;;
46897;SDS011;32646;50.958;6.258;2023-04-01T19:07:39;14.18;;;4.10;;
46897;SDS011;32646;50.958;6.258;2023-04-01T19:16:21;7.63;;;3.45;;
46897;SDS011;32646;50.958;6.258;2023-04-01T19:35:57;8.85;;;3.90;;
46897;SDS011;32646;50.958;6.258;2023-04-01T19:38:30;7.85;;;3.28;;
46897;SDS011;32646;50.958;6.258;2023-04-01T19:41:16;8.20;;;4.18;;
46897;SDS011;32646;50.958;6.258;2023-04-01T19:47:20;7.38;;;3.35;;
46897;SDS011;32646;50.958;6.258;2023-04-01T19:52:59;6.13;;;3.08;;
46897;SDS011;32646;50.958;6.258;2023-04-01T19:56:02;7.13;;;3.47;;
46897;SDS011;32646;50.958;6.258;2023-04-01T20:01:22;6.53;;;2.92;;
46897;SDS011;32646;50.958;6.258;2023-04-01T20:04:26;7.07;;;3.38;;
46897;SDS011;32646;50.958;6.258;2023-04-01T20:14:58;7.13;;;3.20;;
46897;SDS011;32646;50.958;6.258;2023-04-01T20:19:59;6.93;;;2.70;;
46897;SDS011;32646;50.958;6.258;2023-04-01T20:25:18;7.15;;;2.95;;
46897;SDS011;32646;50.958;6.258;2023-04-01T20:47:27;9.40;;;4.25;;
46897;SDS011;32646;50.958;6.258;2023-04-01T20:50:34;7.80;;;3.90;;
46897;SDS011;32646;50.958;6.258;2023-04-01T20:53:16;9.38;;;4.35;;
46897;SDS011;32646;50.958;6.258;2023-04-01T21:17:22;10.90;;;4.65;;
46897;SDS011;32646;50.958;6.258;2023-04-01T21:23:02;13.25;;;6.13;;
46897;SDS011;32646;50.958;6.258;2023-04-01T21:30:53;13.45;;;5.95;;
46897;SDS011;32646;50.958;6.258;2023-04-01T21:39:01;9.50;;;4.68;;
46897;SDS011;32646;50.958;6.258;2023-04-01T21:44:42;11.32;;;4.80;;
46897;SDS011;32646;50.958;6.258;2023-04-01T21:47:22;10.80;;;4.78;;
46897;SDS011;32646;50.958;6.258;2023-04-01T21:58:32;7.45;;;3.15;;
46897;SDS011;32646;50.958;6.258;2023-04-01T22:07:25;7.85;;;3.42;;
46897;SDS011;32646;50.958;6.258;2023-04-01T22:10:57;7.30;;;3.00;;
46897;SDS011;32646;50.958;6.258;2023-04-01T22:18:32;11.60;;;5.43;;
46897;SDS011;32646;50.958;6.258;2023-04-01T22:21:05;13.23;;;6.15;;
46897;SDS011;32646;50.958;6.258;2023-04-01T22:23:43;15.13;;;6.28;;
46897;SDS011;32646;50.958;6.258;2023-04-01T22:26:33;15.23;;;6.80;;
46897;SDS011;32646;50.958;6.258;2023-04-01T22:29:19;15.65;;;6.35;;
46897;SDS011;32646;50.958;6.258;2023-04-01T22:31:53;21.48;;;8.18;;
46897;SDS011;32646;50.958;6.258;2023-04-01T22:34:32;26.25;;;10.38;;
46897;SDS011;32646;50.958;6.258;2023-04-01T22:42:45;18.95;;;8.02;;
46897;SDS011;32646;50.958;6.258;2023-04-01T22:45:26;19.90;;;7.75;;
46897;SDS011;32646;50.958;6.258;2023-04-01T22:56:28;13.63;;;6.97;;
46897;SDS011;32646;50.958;6.258;2023-04-01T22:59:48;12.95;;;5.63;;
46897;SDS011;32646;50.958;6.258;2023-04-01T23:02:04;13.65;;;5.85;;
46897;SDS011;32646;50.958;6.258;2023-04-01T23:04:37;10.48;;;4.80;;
46897;SDS011;32646;50.958;6.258;2023-04-01T23:07:24;11.77;;;5.18;;
46897;SDS011;32646;50.958;6.258;2023-04-01T23:10:19;10.57;;;4.75;;
46897;SDS011;32646;50.958;6.258;2023-04-01T23:13:09;9.98;;;4.22;;
46897;SDS011;32646;50.958;6.258;2023-04-01T23:15:40;11.57;;;4.75;;
46897;SDS011;32646;50.958;6.258;2023-04-01T23:18:30;8.95;;;4.40;;
46897;SDS011;32646;50.958;6.258;2023-04-01T23:23:43;9.32;;;3.95;;
46897;SDS011;32646;50.958;6.258;2023-04-01T23:26:21;7.40;;;3.67;;
46897;SDS011;32646;50.958;6.258;2023-04-01T23:29:12;7.35;;;3.65;;
46897;SDS011;32646;50.958;6.258;2023-04-01T23:31:47;9.82;;;4.10;;
46897;SDS011;32646;50.958;6.258;2023-04-01T23:34:29;8.32;;;3.60;;
46897;SDS011;32646;50.958;6.258;2023-04-01T23:37:12;9.38;;;4.63;;
46897;SDS011;32646;50.958;6.258;2023-04-01T23:39:40;10.05;;;4.40;;
46897;SDS011;32646;50.958;6.258;2023-04-01T23:44:46;8.07;;;3.55;;
46897;SDS011;32646;50.958;6.258;2023-04-01T23:47:16;7.22;;;3.30;;
46897;SDS011;32646;50.958;6.258;2023-04-01T23:50:07;8.93;;;3.70;;
46897;SDS011;32646;50.958;6.258;2023-04-01T23:53:16;9.57;;;4.13;;
46897;SDS011;32646;50.958;6.258;2023-04-01T23:55:44;9.95;;;4.45;;
46897;SDS011;32646;50.958;6.258;2023-04-01T23:58:26;10.73;;;4.65;;
